Time;durP1;ratioP1;P1;durP2;ratioP2;P2;SDS_P1;SDS_P2;PMS_P1;PMS_P2;Temp;Humidity;BMP_temperature;BMP_pressure;BME280_temperature;BME280_humidity;BME280_pressure;Samples;Min_cycle;Max_cycle;Signal;HPM_P1;HPM_P2
2021/12/20 00:00:40;;;;;;;20.00;9.53;;;;;;;4.82;78.08;94294.38;5054814;28;20452;-80
2021/12/20 00:03:07;;;;;;;10.10;7.00;;;;;;;4.90;77.85;94310.25;5054961;28;20444;-79
2021/12/20 00:05:36;;;;;;;14.00;8.10;;;;;;;4.90;77.12;94309.44;5054523;28;20436;-80
2021/12/20 00:08:05;;;;;;;10.73;6.90;;;;;;;4.83;77.25;94306.44;5054745;28;20548;-80
2021/12/20 00:10:32;;;;;;;13.07;6.53;;;;;;;4.90;78.41;94302.47;5054810;28;20512;-80
2021/12/20 00:12:59;;;;;;;8.33;6.40;;;;;;;4.85;77.80;94291.56;5035630;28;20457;-81
2021/12/20 00:15:26;;;;;;;12.10;8.07;;;;;;;4.78;78.21;94295.56;5054681;28;20488;-80
2021/12/20 00:17:53;;;;;;;10.73;7.27;;;;;;;4.80;80.22;94287.66;5035445;28;20477;-79
2021/12/20 00:20:20;;;;;;;15.40;9.70;;;;;;;4.84;78.75;94289.09;5054358;28;20822;-79
2021/12/20 00:22:49;;;;;;;11.07;7.60;;;;;;;4.82;78.85;94294.38;5054395;28;20425;-80
2021/12/20 00:25:16;;;;;;;12.63;7.90;;;;;;;4.78;79.00;94294.72;5054611;28;20954;-79
2021/12/20 00:27:43;;;;;;;10.70;6.93;;;;;;;4.77;78.65;94304.28;5054638;28;20445;-80
2021/12/20 00:30:12;;;;;;;8.73;6.80;;;;;;;4.72;78.46;94290.81;5054362;28;20446;-80
2021/12/20 00:32:39;;;;;;;9.67;6.80;;;;;;;4.69;80.44;94296.22;4986673;28;20438;-79
2021/12/20 00:35:07;;;;;;;10.13;7.43;;;;;;;4.69;80.12;94296.22;5053969;28;20444;-80
2021/12/20 00:40:21;;;;;;;8.27;5.87;;;;;;;4.65;80.56;94316.41;5054190;28;20439;-79
2021/12/20 00:42:53;;;;;;;9.40;6.70;;;;;;;4.66;79.56;94323.25;5053978;28;20920;-80
2021/12/20 00:45:21;;;;;;;7.13;6.13;;;;;;;4.71;81.68;94322.94;5053831;28;20437;-79
2021/12/20 00:47:48;;;;;;;7.93;5.37;;;;;;;4.76;79.83;94330.41;5054276;28;20449;-80
2021/12/20 00:50:17;;;;;;;7.03;5.60;;;;;;;4.82;79.27;94332.56;5053819;28;20452;-80
2021/12/20 00:52:44;;;;;;;6.97;5.47;;;;;;;4.81;79.13;94328.28;5053696;28;20957;-80
2021/12/20 00:55:15;;;;;;;9.20;5.73;;;;;;;4.84;78.83;94320.28;5053988;28;20445;-80
2021/12/20 00:57:44;;;;;;;4.93;4.53;;;;;;;4.92;78.41;94330.97;5053821;28;20454;-80
2021/12/20 01:00:12;;;;;;;5.47;4.70;;;;;;;4.91;78.48;94317.13;5054299;28;21331;-79
2021/12/20 01:02:40;;;;;;;6.47;5.87;;;;;;;4.93;77.36;94322.22;5053827;28;20963;-80
2021/12/20 01:05:08;;;;;;;6.10;5.50;;;;;;;4.97;77.45;94327.09;5035290;28;20448;-80
2021/12/20 01:07:35;;;;;;;4.93;4.20;;;;;;;4.94;77.65;94306.53;5053815;28;20456;-80
2021/12/20 01:10:05;;;;;;;6.43;5.20;;;;;;;4.92;76.68;94311.00;5053834;28;20927;-79
2021/12/20 01:12:41;;;;;;;4.63;4.03;;;;;;;4.87;76.81;94288.84;5052861;28;20500;-80
2021/12/20 01:15:12;;;;;;;5.20;4.70;;;;;;;4.89;78.61;94293.00;5053022;28;20441;-80
2021/12/20 01:17:39;;;;;;;4.63;4.20;;;;;;;4.87;78.20;94294.88;5053249;28;20572;-80
2021/12/20 01:20:08;;;;;;;5.40;4.50;;;;;;;4.85;76.79;94299.38;5053264;28;20588;-79
2021/12/20 01:22:35;;;;;;;5.50;3.80;;;;;;;4.89;78.27;94289.56;5053479;28;20445;-79
2021/12/20 01:25:02;;;;;;;5.63;5.10;;;;;;;4.90;77.25;94289.47;5053269;28;20473;-80
2021/12/20 01:27:29;;;;;;;4.47;4.13;;;;;;;4.86;75.38;94282.00;5051378;28;20444;-79
2021/12/20 01:29:56;;;;;;;4.80;4.30;;;;;;;4.83;75.83;94277.84;5052636;28;20555;-80
2021/12/20 01:32:24;;;;;;;5.30;3.97;;;;;;;4.83;77.20;94275.25;5053250;28;20441;-80
2021/12/20 01:34:51;;;;;;;6.23;5.20;;;;;;;4.80;76.89;94282.44;5052953;28;20446;-79
2021/12/20 01:37:18;;;;;;;4.30;3.97;;;;;;;4.83;76.09;94284.81;5052916;28;20473;-80
2021/12/20 01:39:45;;;;;;;4.83;4.43;;;;;;;4.70;76.86;94256.31;5052940;28;20457;-81
2021/12/20 01:42:18;;;;;;;5.80;5.20;;;;;;;4.70;75.60;94284.88;5053277;28;20776;-80
2021/12/20 01:44:45;;;;;;;5.67;4.80;;;;;;;4.65;76.29;94274.84;5052818;28;20808;-79
2021/12/20 01:47:13;;;;;;;5.60;5.07;;;;;;;4.60;76.99;94279.50;5052943;28;20446;-79
2021/12/20 01:49:53;;;;;;;7.03;5.13;;;;;;;4.57;76.28;94278.88;5053128;28;20476;-80
2021/12/20 01:52:23;;;;;;;5.37;4.80;;;;;;;4.61;77.11;94290.72;5052398;28;20445;-78
2021/12/20 01:54:50;;;;;;;4.73;4.23;;;;;;;4.59;77.70;94295.19;5052680;28;20441;-80
2021/12/20 01:57:19;;;;;;;4.57;4.17;;;;;;;4.61;76.73;94288.13;5052728;28;20481;-79
2021/12/20 01:59:46;;;;;;;6.33;5.47;;;;;;;4.57;76.67;94303.09;5052873;28;20441;-79
2021/12/20 02:02:13;;;;;;;7.30;4.87;;;;;;;4.63;76.84;94302.69;5052466;28;20936;-79
2021/12/20 02:04:46;;;;;;;4.63;4.23;;;;;;;4.63;76.64;94312.25;5052703;28;20472;-79
2021/12/20 02:07:31;;;;;;;6.10;4.90;;;;;;;4.67;76.75;94311.09;5033850;28;20532;-79
2021/12/20 02:09:58;;;;;;;6.83;5.00;;;;;;;4.68;77.48;94325.75;5052781;28;20512;-79
2021/12/20 02:12:25;;;;;;;6.10;4.83;;;;;;;4.65;76.92;94311.22;5052459;28;20453;-79
2021/12/20 02:14:52;;;;;;;4.50;4.10;;;;;;;4.66;77.99;94310.28;5052333;28;20796;-79
2021/12/20 02:17:19;;;;;;;6.10;5.30;;;;;;;4.71;80.50;94304.75;5052110;28;20488;-80
2021/12/20 02:19:47;;;;;;;7.60;5.77;;;;;;;4.70;77.98;94318.66;5034170;28;20442;-79
2021/12/20 02:22:18;;;;;;;6.33;5.20;;;;;;;4.70;77.94;94323.88;5052995;28;20441;-79
2021/12/20 02:24:45;;;;;;;10.40;6.17;;;;;;;4.74;76.97;94325.31;5034156;28;20437;-79
2021/12/20 02:27:11;;;;;;;8.00;5.90;;;;;;;4.74;78.30;94322.72;5052353;28;20449;-79
2021/12/20 02:29:57;;;;;;;7.17;5.77;;;;;;;4.80;79.08;94319.66;5052834;28;20452;-79
2021/12/20 02:37:56;;;;;;;13.37;7.10;;;;;;;4.63;78.80;94302.69;5052100;28;20480;-79
2021/12/20 02:40:23;;;;;;;8.80;6.83;;;;;;;4.65;79.43;94305.19;5052510;28;20446;-79
2021/12/20 02:42:52;;;;;;;8.73;6.17;;;;;;;4.60;78.77;94302.06;5055821;28;20966;-80
2021/12/20 02:45:18;;;;;;;7.87;5.93;;;;;;;4.53;79.44;94300.84;5056489;28;20440;-80
2021/12/20 02:47:49;;;;;;;7.20;6.50;;;;;;;4.54;80.57;94310.28;5056441;28;20448;-80
2021/12/20 02:50:16;;;;;;;9.63;6.83;;;;;;;4.50;80.65;94314.03;5056131;28;20449;-79
2021/12/20 02:52:44;;;;;;;8.70;6.37;;;;;;;4.54;79.46;94311.13;5055780;28;20510;-79
2021/12/20 02:55:12;;;;;;;7.23;5.80;;;;;;;4.59;80.29;94314.22;5056378;28;20796;-79
2021/12/20 02:57:40;;;;;;;6.90;6.00;;;;;;;4.60;79.48;94315.03;5055737;28;20476;-79
2021/12/20 03:00:09;;;;;;;8.97;7.00;;;;;;;4.61;79.02;94324.50;5056060;28;20449;-79
2021/12/20 03:02:36;;;;;;;9.93;7.17;;;;;;;4.62;79.31;94314.00;5055710;28;20453;-79
2021/12/20 03:05:04;;;;;;;10.40;6.37;;;;;;;4.61;79.93;94314.09;5055583;28;20453;-79
2021/12/20 03:07:40;;;;;;;14.53;7.60;;;;;;;4.65;79.00;94307.78;5055626;28;20456;-80
2021/12/20 03:10:08;;;;;;;8.70;6.17;;;;;;;4.61;79.40;94317.53;5037050;28;20526;-79
2021/12/20 03:12:36;;;;;;;6.40;5.70;;;;;;;4.61;79.46;94316.69;5055948;28;20457;-79
2021/12/20 03:15:11;;;;;;;7.80;6.87;;;;;;;4.71;79.35;94320.31;5055876;28;20445;-79
2021/12/20 03:17:38;;;;;;;6.80;6.10;;;;;;;4.67;79.93;94321.50;5055478;28;21320;-79
2021/12/20 03:20:06;;;;;;;5.37;4.87;;;;;;;4.65;79.40;94315.56;5055583;28;20456;-79
2021/12/20 03:22:33;;;;;;;7.10;5.90;;;;;;;4.69;80.04;94321.38;5055328;28;20801;-79
2021/12/20 03:25:00;;;;;;;8.47;7.17;;;;;;;4.72;79.11;94322.00;5055441;28;20942;-79
2021/12/20 03:27:26;;;;;;;7.67;6.33;;;;;;;4.70;79.34;94323.88;5036792;28;21049;-79
2021/12/20 03:29:55;;;;;;;8.30;6.37;;;;;;;4.76;79.90;94328.63;5055270;28;20452;-79
2021/12/20 03:32:22;;;;;;;8.47;5.63;;;;;;;4.77;80.23;94335.47;5055536;28;20445;-79
2021/12/20 03:34:48;;;;;;;6.80;5.47;;;;;;;4.79;79.00;94325.81;5036676;28;20453;-79
2021/12/20 03:37:15;;;;;;;9.23;6.67;;;;;;;4.79;79.47;94336.19;5055384;28;20480;-79
2021/12/20 03:39:45;;;;;;;10.17;7.00;;;;;;;4.76;79.91;94339.03;5055486;28;20449;-79
2021/12/20 03:42:12;;;;;;;10.03;6.70;;;;;;;4.79;79.75;94330.16;5054921;28;20449;-79
2021/12/20 03:44:43;;;;;;;12.07;9.50;;;;;;;4.82;79.74;94342.94;5054901;28;20468;-79
2021/12/20 03:47:13;;;;;;;8.30;7.40;;;;;;;4.86;79.35;94347.81;5055610;28;20491;-80
2021/12/20 03:49:40;;;;;;;10.77;7.07;;;;;;;4.86;83.21;94334.00;5036240;28;20983;-79
2021/12/20 03:52:08;;;;;;;7.60;6.80;;;;;;;4.86;80.91;94334.00;5055314;28;20457;-79
2021/12/20 03:54:35;;;;;;;9.77;6.73;;;;;;;4.83;80.22;94336.81;5054156;28;21159;-79
2021/12/20 03:57:02;;;;;;;8.40;7.20;;;;;;;4.83;80.56;94339.41;5054857;28;20481;-79
2021/12/20 03:59:30;;;;;;;7.33;6.30;;;;;;;4.78;79.77;94344.94;5054948;28;20446;-79
2021/12/20 04:01:57;;;;;;;8.13;6.07;;;;;;;4.64;80.04;94339.91;5054797;28;20472;-79
2021/12/20 04:04:26;;;;;;;8.83;7.13;;;;;;;4.62;82.36;94339.97;5054915;28;20437;-79
2021/12/20 04:06:53;;;;;;;12.50;9.10;;;;;;;4.64;82.53;94345.09;5054718;28;20448;-79
2021/12/20 04:09:20;;;;;;;14.20;8.77;;;;;;;4.60;81.96;94354.03;5054691;28;20448;-79
2021/12/20 04:11:47;;;;;;;9.73;8.20;;;;;;;4.57;82.83;94355.06;5054430;28;20445;-79
2021/12/20 04:14:13;;;;;;;10.80;7.97;;;;;;;4.50;83.98;94356.44;5055081;28;20452;-79
2021/12/20 04:16:40;;;;;;;10.27;8.30;;;;;;;4.52;84.10;94358.94;5054556;28;20488;-79
2021/12/20 04:19:07;;;;;;;13.27;8.60;;;;;;;4.54;85.08;94359.66;5054622;28;20457;-80
2021/12/20 04:21:36;;;;;;;16.33;10.57;;;;;;;4.50;85.50;94379.00;5051941;28;20438;-79
2021/12/20 04:24:02;;;;;;;22.07;14.80;;;;;;;4.55;85.97;94382.09;5055152;28;20446;-79
2021/12/20 04:26:29;;;;;;;15.17;10.57;;;;;;;4.60;86.13;94385.19;5055248;28;20452;-79
2021/12/20 04:28:56;;;;;;;10.17;8.27;;;;;;;4.58;85.76;94381.88;5055836;28;20457;-79
2021/12/20 04:31:23;;;;;;;11.80;9.10;;;;;;;4.45;86.92;94381.09;5055488;28;20438;-79
2021/12/20 04:33:50;;;;;;;12.10;8.50;;;;;;;4.41;86.72;94379.63;5055449;28;20516;-79
2021/12/20 04:36:17;;;;;;;12.83;9.70;;;;;;;4.36;88.07;94379.97;5036884;28;20442;-79
2021/12/20 04:38:47;;;;;;;12.20;9.07;;;;;;;4.37;88.24;94376.41;5036540;28;20503;-79
2021/12/20 04:41:14;;;;;;;13.30;10.33;;;;;;;4.33;87.99;94377.53;5055423;28;20954;-79
2021/12/20 04:43:40;;;;;;;15.53;10.67;;;;;;;4.41;88.90;94382.22;5036730;28;20779;-79
2021/12/20 04:46:07;;;;;;;12.50;9.67;;;;;;;4.42;88.45;94382.13;5055266;28;20464;-79
2021/12/20 04:48:34;;;;;;;13.37;10.40;;;;;;;4.47;88.26;94385.22;5053054;28;20429;-79
2021/12/20 04:51:01;;;;;;;11.93;9.00;;;;;;;4.44;88.05;94380.25;5058247;28;20438;-79
2021/12/20 04:53:28;;;;;;;11.97;9.30;;;;;;;4.51;88.46;94378.88;5057162;28;20444;-79
2021/12/20 04:55:57;;;;;;;11.70;10.17;;;;;;;4.62;88.57;94388.50;5056620;28;20893;-79
2021/12/20 04:58:23;;;;;;;13.47;10.23;;;;;;;4.62;88.41;94394.53;5054554;28;20481;-80
2021/12/20 05:00:50;;;;;;;12.10;9.13;;;;;;;4.53;88.39;94391.75;5054987;28;20447;-79
2021/12/20 05:03:17;;;;;;;11.93;8.07;;;;;;;4.52;88.16;94388.34;5055441;28;20445;-79
2021/12/20 05:05:44;;;;;;;13.20;11.10;;;;;;;4.58;87.96;94397.47;5054095;28;20449;-79
2021/12/20 05:08:12;;;;;;;11.50;7.83;;;;;;;4.50;87.78;94387.63;5054591;28;20444;-81
2021/12/20 05:10:41;;;;;;;11.70;8.57;;;;;;;4.39;87.53;94394.50;5054780;28;20472;-80
2021/12/20 05:13:11;;;;;;;11.20;7.63;;;;;;;4.32;88.28;94381.91;5054948;28;20553;-79
2021/12/20 05:15:40;;;;;;;9.50;8.10;;;;;;;4.31;89.85;94387.22;5052207;28;20469;-79
2021/12/20 05:18:08;;;;;;;13.10;9.43;;;;;;;4.30;88.24;94399.38;5054515;28;20975;-79
2021/12/20 05:20:36;;;;;;;9.37;8.20;;;;;;;4.26;88.81;94392.72;5054423;28;20442;-80
2021/12/20 05:23:04;;;;;;;9.57;7.37;;;;;;;4.14;87.96;94371.97;5054415;28;20437;-80
2021/12/20 05:25:31;;;;;;;9.07;6.93;;;;;;;4.16;88.85;94380.47;5054068;28;20436;-79
2021/12/20 05:27:58;;;;;;;7.10;6.40;;;;;;;4.14;88.93;94385.78;5054106;28;20453;-80
2021/12/20 05:30:26;;;;;;;7.07;6.20;;;;;;;4.13;89.62;94397.09;5053900;28;20449;-80
2021/12/20 05:32:54;;;;;;;8.13;7.33;;;;;;;4.16;89.84;94398.66;5054244;28;20441;-80
2021/12/20 05:35:22;;;;;;;9.90;7.40;;;;;;;4.05;89.41;94396.78;5054348;28;20974;-80
2021/12/20 05:37:49;;;;;;;9.27;6.57;;;;;;;4.05;89.63;94394.19;5054228;28;20485;-78
2021/12/20 05:40:18;;;;;;;7.77;6.43;;;;;;;4.07;90.54;94391.50;5053818;28;20449;-78
2021/12/20 05:42:46;;;;;;;10.93;7.50;;;;;;;4.05;88.73;94391.59;5054027;28;20776;-78
2021/12/20 05:45:13;;;;;;;8.40;6.43;;;;;;;4.04;88.81;94388.13;5053616;28;20437;-78
2021/12/20 05:47:42;;;;;;;8.00;7.20;;;;;;;4.07;88.83;94405.31;5054048;28;20433;-80
2021/12/20 05:50:13;;;;;;;10.37;7.90;;;;;;;4.10;88.78;94392.13;5019563;28;20453;-78
2021/12/20 05:52:40;;;;;;;6.50;5.13;;;;;;;4.03;87.91;94399.47;5054379;28;20449;-79
2021/12/20 05:55:09;;;;;;;7.97;5.60;;;;;;;4.06;87.52;94406.25;5054383;28;20436;-79
2021/12/20 05:57:37;;;;;;;7.17;5.90;;;;;;;4.09;88.88;94392.22;5053835;28;20475;-87
2021/12/20 06:00:09;;;;;;;7.43;6.43;;;;;;;4.08;87.77;94422.53;5054036;28;20457;-81
2021/12/20 06:02:36;;;;;;;7.10;5.70;;;;;;;4.19;88.63;94404.47;5053937;28;20449;-81
2021/12/20 06:05:05;;;;;;;8.60;6.47;;;;;;;4.18;87.50;94420.97;5054070;28;20456;-80
2021/12/20 06:07:31;;;;;;;8.20;6.07;;;;;;;4.19;86.65;94433.03;5053847;28;20429;-78
2021/12/20 06:09:58;;;;;;;7.77;5.93;;;;;;;4.22;86.14;94432.81;5054330;28;20448;-80
2021/12/20 06:12:25;;;;;;;7.53;6.77;;;;;;;4.20;86.39;94433.84;5053798;28;20450;-83
2021/12/20 06:14:52;;;;;;;9.20;6.23;;;;;;;4.18;85.47;94439.16;5053519;28;20508;-80
2021/12/20 06:17:19;;;;;;;11.70;7.70;;;;;;;4.22;86.36;94440.59;5035020;28;20491;-81
2021/12/20 06:19:46;;;;;;;8.77;7.93;;;;;;;4.28;86.22;94439.34;5054035;28;20449;-80
2021/12/20 06:22:15;;;;;;;8.38;7.55;;;;;;;4.32;85.52;94444.25;5053382;28;20456;-80
2021/12/20 06:24:41;;;;;;;10.90;8.30;;;;;;;4.44;84.85;94458.19;5052988;28;20213;-79
2021/12/20 06:27:09;;;;;;;7.37;6.10;;;;;;;4.53;85.04;94459.31;5053596;28;20429;-80
2021/12/20 06:29:36;;;;;;;6.50;5.77;;;;;;;4.58;84.74;94467.63;5053438;28;20939;-81
2021/12/20 06:32:03;;;;;;;7.33;6.50;;;;;;;4.63;84.17;94462.97;5054165;28;20457;-80
2021/12/20 06:34:31;;;;;;;8.00;7.20;;;;;;;4.63;83.14;94460.38;5053392;28;20551;-81
2021/12/20 06:36:58;;;;;;;7.23;6.53;;;;;;;4.65;83.52;94455.91;5053577;28;20425;-79
2021/12/20 06:39:26;;;;;;;5.87;5.27;;;;;;;4.68;83.88;94460.03;5053668;28;20481;-80
2021/12/20 06:41:53;;;;;;;10.03;6.70;;;;;;;4.72;83.01;94464.91;5018889;28;21303;-80
2021/12/20 06:44:20;;;;;;;6.53;5.73;;;;;;;4.72;83.43;94466.69;5055043;28;20445;-80
2021/12/20 06:46:47;;;;;;;7.20;6.50;;;;;;;5.66;100.00;94459.97;5053750;28;20446;-81
2021/12/20 06:49:15;;;;;;;7.40;6.27;;;;;;;8.04;100.00;94459.81;5053788;28;20430;-81
2021/12/20 06:51:43;;;;;;;5.50;4.90;;;;;;;8.65;85.34;94467.84;5054339;28;20765;-81
2021/12/20 06:54:11;;;;;;;5.27;4.87;;;;;;;7.96;70.66;94473.50;5053705;28;20954;-80
2021/12/20 06:56:40;;;;;;;6.53;5.40;;;;;;;7.44;71.16;94469.84;5053106;28;20439;-80
2021/12/20 06:59:07;;;;;;;8.27;7.30;;;;;;;6.98;72.43;94464.00;5053382;28;20486;-79
2021/12/20 07:01:34;;;;;;;8.40;6.20;;;;;;;6.25;75.16;94470.41;5053664;28;20446;-79
2021/12/20 07:04:02;;;;;;;6.70;5.13;;;;;;;6.17;86.89;94462.34;5053411;28;20525;-81
2021/12/20 07:06:29;;;;;;;14.13;6.93;;;;;;;5.98;78.65;94475.03;5054605;28;20495;-80
2021/12/20 07:08:56;;;;;;;6.83;5.60;;;;;;;5.60;79.16;94469.06;5053447;28;20452;-80
2021/12/20 07:11:23;;;;;;;6.10;5.03;;;;;;;5.43;78.53;94472.03;5052983;28;20437;-80
2021/12/20 07:13:53;;;;;;;7.87;5.90;;;;;;;5.94;99.94;94450.19;5053058;28;20460;-79
2021/12/20 07:16:20;;;;;;;9.97;7.17;;;;;;;5.72;80.93;94469.09;5053298;28;20529;-80
2021/12/20 07:18:47;;;;;;;7.50;6.10;;;;;;;5.54;79.58;94473.88;5052973;28;20854;-80
2021/12/20 07:21:14;;;;;;;6.47;4.77;;;;;;;5.39;79.80;94456.75;5053356;28;20798;-79
2021/12/20 07:23:41;;;;;;;8.10;5.60;;;;;;;5.23;80.09;94464.84;5053005;28;20942;-79
2021/12/20 07:26:12;;;;;;;5.97;4.93;;;;;;;5.19;79.72;94461.59;5052964;28;20460;-80
2021/12/20 07:28:41;;;;;;;4.87;4.17;;;;;;;5.18;79.11;94472.94;5048543;28;20448;-80
2021/12/20 07:31:09;;;;;;;5.47;4.90;;;;;;;5.18;80.32;94470.34;5060561;28;20441;-80
2021/12/20 07:33:36;;;;;;;5.90;5.30;;;;;;;5.20;79.65;94475.44;5036975;28;20501;-80
2021/12/20 07:36:21;;;;;;;7.60;5.90;;;;;;;6.08;92.02;94482.09;5045228;28;20441;-79
2021/12/20 07:38:48;;;;;;;11.70;7.33;;;;;;;6.02;82.12;94479.91;5062982;28;20988;-82
2021/12/20 07:41:18;;;;;;;11.53;9.77;;;;;;;7.29;100.00;94457.19;5056828;28;20433;-82
2021/12/20 07:43:45;;;;;;;6.10;5.50;;;;;;;8.41;100.00;94469.91;5056846;28;20485;-81
2021/12/20 07:46:13;;;;;;;10.03;6.53;;;;;;;9.38;100.00;94466.81;5056049;28;20429;-79
2021/12/20 07:48:40;;;;;;;5.43;4.90;;;;;;;8.61;69.45;94488.19;5056295;28;20455;-80
2021/12/20 07:51:07;;;;;;;5.17;4.67;;;;;;;7.83;67.18;94478.09;5037595;28;20816;-80
2021/12/20 07:53:34;;;;;;;4.30;4.00;;;;;;;7.46;69.05;94494.06;5056107;28;20938;-79
2021/12/20 07:56:02;;;;;;;4.23;3.90;;;;;;;6.97;70.26;94488.41;5052759;28;20455;-80
2021/12/20 07:58:29;;;;;;;5.00;4.47;;;;;;;6.42;72.33;94490.84;5055527;28;20485;-80
2021/12/20 08:00:56;;;;;;;6.30;5.70;;;;;;;9.00;100.00;94484.03;5056506;28;20457;-87
2021/12/20 08:03:24;;;;;;;4.30;3.90;;;;;;;9.79;81.12;94491.97;5056229;28;20455;-80
2021/12/20 08:05:51;;;;;;;6.87;4.53;;;;;;;9.08;65.70;94496.44;5021143;28;20860;-81
2021/12/20 08:08:18;;;;;;;9.63;6.53;;;;;;;8.83;73.44;94496.88;5056047;28;20458;-80
2021/12/20 08:10:45;;;;;;;9.97;6.30;;;;;;;8.60;73.13;94497.00;5048551;28;20441;-80
2021/12/20 08:13:13;;;;;;;4.30;3.80;;;;;;;7.94;66.70;94498.94;5078068;28;21637;-80
2021/12/20 08:15:40;;;;;;;11.50;7.10;;;;;;;7.57;68.36;94505.44;5074395;28;20438;-80
2021/12/20 08:18:07;;;;;;;8.57;6.43;;;;;;;7.16;69.04;94506.91;5055770;28;20498;-81
2021/12/20 08:20:36;;;;;;;8.90;7.47;;;;;;;7.74;81.75;94505.75;5055779;28;20887;-80
2021/12/20 08:23:03;;;;;;;5.60;5.10;;;;;;;7.25;70.09;94500.97;5055744;28;20472;-81
2021/12/20 08:25:30;;;;;;;8.80;5.73;;;;;;;7.16;70.43;94493.84;5072219;28;20448;-81
2021/12/20 08:27:57;;;;;;;6.00;5.40;;;;;;;6.96;70.64;94505.00;5072541;28;20548;-81
2021/12/20 08:30:24;;;;;;;3.40;3.10;;;;;;;6.75;70.38;94497.88;5055476;28;20447;-81
2021/12/20 08:32:51;;;;;;;3.90;3.60;;;;;;;6.70;70.37;94501.78;5055175;28;20945;-81
2021/12/20 08:35:19;;;;;;;5.20;4.70;;;;;;;6.56;71.06;94499.38;5041750;28;20458;-80
2021/12/20 08:37:47;;;;;;;4.70;3.80;;;;;;;6.42;70.23;94513.44;5053582;28;20788;-80
2021/12/20 08:40:16;;;;;;;10.57;5.13;;;;;;;6.60;80.86;94467.75;5059257;28;20927;-83
2021/12/20 08:42:44;;;;;;;3.93;3.10;;;;;;;6.24;71.37;94496.56;5060520;28;20459;-83
2021/12/20 08:45:13;;;;;;;5.33;3.50;;;;;;;5.93;72.94;94503.19;5047168;28;20442;-81
2021/12/20 08:47:40;;;;;;;9.03;5.13;;;;;;;5.86;73.25;94502.78;5071042;28;20528;-81
2021/12/20 08:50:10;;;;;;;7.60;5.37;;;;;;;5.74;73.77;94504.50;5035385;28;20933;-82
2021/12/20 08:52:37;;;;;;;7.43;4.60;;;;;;;5.74;73.82;94519.28;5035709;28;20431;-81
2021/12/20 08:55:07;;;;;;;13.67;6.60;;;;;;;5.70;73.72;94510.03;5035361;28;20445;-79
2021/12/20 08:57:34;;;;;;;5.40;3.33;;;;;;;5.66;73.60;94492.97;5035029;28;20945;-79
2021/12/20 09:00:02;;;;;;;4.90;4.50;;;;;;;5.68;74.23;94504.94;5035034;28;20483;-80
2021/12/20 09:02:29;;;;;;;10.03;4.53;;;;;;;5.82;74.75;94517.81;5035485;28;20431;-80
2021/12/20 09:04:56;;;;;;;3.80;3.53;;;;;;;5.85;72.64;94501.97;5034859;28;20445;-79
2021/12/20 09:07:23;;;;;;;5.07;4.00;;;;;;;5.84;73.02;94489.88;5034835;28;20450;-80
2021/12/20 09:09:50;;;;;;;5.30;4.23;;;;;;;5.77;71.87;94493.84;5034653;28;20913;-80
2021/12/20 09:12:20;;;;;;;4.13;3.83;;;;;;;5.60;73.47;94483.84;5034875;28;20459;-79
2021/12/20 09:14:48;;;;;;;5.43;4.93;;;;;;;5.61;72.68;94501.13;5034856;28;20522;-80
2021/12/20 09:20:43;;;;;;;4.00;3.60;;;;;;;5.54;72.92;94500.75;5031296;28;20445;-80
2021/12/20 09:23:12;;;;;;;5.07;4.57;;;;;;;5.52;72.59;94489.59;5054171;28;20437;-80
2021/12/20 09:25:41;;;;;;;6.97;4.70;;;;;;;5.52;74.44;94483.56;5054509;28;20448;-80
2021/12/20 09:28:11;;;;;;;9.27;5.23;;;;;;;5.51;74.31;94487.94;5054610;28;20798;-80
2021/12/20 09:30:41;;;;;;;5.53;4.20;;;;;;;5.44;73.81;94483.25;5054440;28;20521;-80
2021/12/20 09:33:08;;;;;;;5.00;4.43;;;;;;;5.47;74.21;94483.03;5054320;28;20928;-80
2021/12/20 09:35:35;;;;;;;5.00;4.07;;;;;;;5.48;73.39;94485.53;5053979;28;20442;-80
2021/12/20 09:38:06;;;;;;;7.27;4.03;;;;;;;5.56;75.44;94485.84;5053122;28;20528;-80
2021/12/20 09:40:36;;;;;;;6.83;4.60;;;;;;;5.69;74.51;94488.38;5052904;28;20998;-80
2021/12/20 09:43:09;;;;;;;9.27;5.17;;;;;;;5.74;73.95;94493.25;5053225;28;20447;-80
2021/12/20 09:45:36;;;;;;;3.40;3.20;;;;;;;5.63;73.92;94474.97;5053091;28;20838;-80
2021/12/20 09:48:04;;;;;;;6.03;4.00;;;;;;;5.59;74.07;94470.00;5053105;28;20445;-80
2021/12/20 09:50:32;;;;;;;4.50;3.80;;;;;;;5.58;73.56;94459.72;5017340;28;20451;-80
2021/12/20 09:53:04;;;;;;;3.83;3.20;;;;;;;5.51;73.33;94477.53;5052884;28;20892;-79
2021/12/20 09:55:31;;;;;;;4.50;3.20;;;;;;;5.44;72.30;94465.06;5052881;28;20440;-80
2021/12/20 09:58:01;;;;;;;4.87;3.83;;;;;;;5.41;72.92;94471.31;5018080;28;20821;-80
2021/12/20 10:00:30;;;;;;;6.67;3.60;;;;;;;5.49;75.09;94462.94;5053083;28;20554;-79
2021/12/20 10:02:56;;;;;;;5.10;4.40;;;;;;;5.51;74.18;94469.72;5053104;28;20441;-81
2021/12/20 10:05:24;;;;;;;4.97;3.57;;;;;;;5.52;73.33;94462.75;5052521;28;20441;-81
2021/12/20 10:07:51;;;;;;;3.23;3.03;;;;;;;5.47;75.32;94447.44;5052650;28;20433;-80
2021/12/20 10:10:40;;;;;;;4.73;4.33;;;;;;;5.58;76.33;94457.94;5052935;28;20539;-80
2021/12/20 10:13:09;;;;;;;8.27;4.33;;;;;;;5.69;75.87;94453.72;5052626;28;20457;-81
2021/12/20 10:15:39;;;;;;;5.33;4.37;;;;;;;5.76;75.25;94470.53;5052932;28;20532;-80
2021/12/20 10:18:12;;;;;;;12.20;8.00;;;;;;;5.84;73.89;94463.84;5053045;28;20457;-80
2021/12/20 10:20:39;;;;;;;11.17;6.53;;;;;;;5.86;74.83;94484.56;5052689;28;21008;-81
2021/12/20 10:23:13;;;;;;;7.17;6.33;;;;;;;5.88;74.32;94480.91;5052833;28;20478;-80
2021/12/20 10:25:41;;;;;;;6.60;4.67;;;;;;;5.74;74.37;94469.81;5052697;28;20455;-80
2021/12/20 10:28:11;;;;;;;6.00;4.90;;;;;;;5.69;74.39;94472.75;5033751;28;20437;-80
2021/12/20 10:30:43;;;;;;;4.73;4.33;;;;;;;5.79;75.12;94476.38;5052561;28;20445;-81
2021/12/20 10:33:13;;;;;;;4.80;4.40;;;;;;;5.74;74.69;94485.44;5052619;28;20453;-80
2021/12/20 10:35:47;;;;;;;13.33;6.10;;;;;;;5.74;73.81;94486.28;5052281;28;20442;-80
2021/12/20 10:38:37;;;;;;;6.83;6.07;;;;;;;5.78;75.46;94484.28;5052156;28;20989;-80
2021/12/20 10:41:06;;;;;;;6.67;3.77;;;;;;;5.65;76.01;94466.13;5052461;28;20481;-80
2021/12/20 10:43:36;;;;;;;4.17;3.87;;;;;;;5.66;76.87;94475.59;5052232;28;20484;-80
2021/12/20 10:46:12;;;;;;;9.37;6.10;;;;;;;5.65;76.24;94463.53;5052342;28;20445;-80
2021/12/20 10:48:39;;;;;;;8.10;6.90;;;;;;;5.55;78.25;94480.75;5017554;28;20800;-80
2021/12/20 10:51:06;;;;;;;7.07;5.70;;;;;;;5.46;78.73;94477.00;5052481;28;20445;-80
2021/12/20 10:53:33;;;;;;;5.90;5.17;;;;;;;5.35;79.50;94473.53;5052251;28;20822;-80
2021/12/20 10:56:02;;;;;;;7.90;6.20;;;;;;;5.48;82.16;94474.28;5052632;28;20459;-80
2021/12/20 10:58:33;;;;;;;6.33;5.70;;;;;;;5.51;80.76;94482.75;5052689;28;20500;-80
2021/12/20 11:01:15;;;;;;;11.10;6.50;;;;;;;5.56;80.95;94478.03;5052504;28;20484;-80
2021/12/20 11:03:43;;;;;;;5.27;4.77;;;;;;;5.51;79.70;94482.75;5053661;28;21000;-80
2021/12/20 11:06:26;;;;;;;7.17;5.40;;;;;;;5.50;80.48;94481.09;5056359;28;20976;-80
2021/12/20 11:11:46;;;;;;;7.40;3.90;;;;;;;5.60;78.33;94479.47;5013440;28;20439;-80
2021/12/20 11:14:14;;;;;;;9.53;5.07;;;;;;;5.76;78.00;94483.56;4997187;28;20435;-80
2021/12/20 11:16:44;;;;;;;4.27;3.90;;;;;;;5.81;76.81;94463.25;5013915;28;20853;-80
2021/12/20 11:19:23;;;;;;;4.53;3.57;;;;;;;5.88;77.11;94465.28;5014054;28;20577;-80
2021/12/20 11:21:53;;;;;;;3.43;3.10;;;;;;;5.80;76.06;94479.81;5013561;28;20467;-79
2021/12/20 11:24:22;;;;;;;4.23;3.53;;;;;;;5.69;77.85;94464.94;5013854;28;20443;-79
2021/12/20 11:26:50;;;;;;;3.37;3.10;;;;;;;5.64;77.35;94463.63;5014091;28;20442;-80
2021/12/20 11:29:17;;;;;;;3.80;3.10;;;;;;;5.55;78.03;94457.31;5013586;28;20989;-79
2021/12/20 11:31:46;;;;;;;2.70;2.50;;;;;;;5.57;77.03;94453.66;5013594;28;20443;-79
2021/12/20 11:34:14;;;;;;;3.77;3.40;;;;;;;5.62;77.23;94463.75;4980582;28;21012;-79
2021/12/20 11:36:41;;;;;;;3.53;3.23;;;;;;;5.63;77.32;94470.59;5014224;28;20450;-79
2021/12/20 11:39:10;;;;;;;4.27;3.87;;;;;;;5.71;77.91;94463.06;5013385;28;20482;-79
2021/12/20 11:41:37;;;;;;;2.53;2.33;;;;;;;5.71;76.37;94463.06;5013530;28;20449;-79
2021/12/20 11:44:06;;;;;;;3.53;3.20;;;;;;;5.74;76.17;94462.00;5013823;28;20446;-80
2021/12/20 11:46:41;;;;;;;6.50;3.27;;;;;;;5.83;76.33;94476.97;5013088;28;20450;-79
2021/12/20 11:49:09;;;;;;;2.63;2.43;;;;;;;5.87;76.21;94494.03;5041549;28;20459;-80
2021/12/20 11:51:55;;;;;;;9.70;2.70;;;;;;;5.75;78.50;94492.31;5055096;28;20441;-79
2021/12/20 11:54:37;;;;;;;3.63;2.73;;;;;;;5.55;76.92;94492.00;5054789;28;20445;-79
2021/12/20 11:57:05;;;;;;;6.00;3.77;;;;;;;5.43;78.40;94498.03;5054854;28;20443;-79
2021/12/20 11:59:48;;;;;;;3.70;3.40;;;;;;;5.34;78.28;94498.72;5054989;28;20483;-79